Time;durP1;ratioP1;P1;durP2;ratioP2;P2;SDS_P1;SDS_P2;PMS_P1;PMS_P2;Temp;Humidity;BMP_temperature;BMP_pressure;BME280_temperature;BME280_humidity;BME280_pressure;Samples;Min_cycle;Max_cycle;Signal;HPM_P1;HPM_P2
2021/10/22 00:01:28;;;;;;;3.08;1.50;;;;;;;14.48;54.05;98572.98;1827457;75;21343;-62
2021/10/22 00:03:56;;;;;;;6.50;1.40;;;;;;;14.52;54.01;98573.11;1835318;75;21548;-58
2021/10/22 00:06:22;;;;;;;4.15;1.50;;;;;;;14.54;53.98;98571.14;1821603;76;21755;-63
2021/10/22 00:08:48;;;;;;;5.97;1.12;;;;;;;14.57;53.88;98563.61;1827882;76;21603;-61
2021/10/22 00:11:16;;;;;;;2.60;1.00;;;;;;;14.61;53.86;98565.09;1824798;75;21076;-61
2021/10/22 00:13:43;;;;;;;5.62;1.20;;;;;;;14.64;53.79;98570.23;1833174;75;21391;-61
2021/10/22 00:16:09;;;;;;;5.00;1.10;;;;;;;14.67;53.77;98563.70;1823684;75;21084;-60
2021/10/22 00:18:35;;;;;;;3.55;1.10;;;;;;;14.71;53.67;98566.05;1825644;76;21076;-58
2021/10/22 00:21:02;;;;;;;5.03;1.07;;;;;;;14.74;53.67;98561.70;1827747;76;21054;-60
2021/10/22 00:23:28;;;;;;;6.05;1.00;;;;;;;14.77;53.61;98568.72;1827377;75;21060;-60
2021/10/22 00:25:55;;;;;;;2.25;1.00;;;;;;;14.80;53.47;98561.67;1823595;76;21107;-60
2021/10/22 00:28:21;;;;;;;2.40;1.05;;;;;;;14.82;53.45;98556.99;1826307;75;21114;-58
2021/10/22 00:30:48;;;;;;;4.12;1.20;;;;;;;14.85;53.37;98556.75;1831305;76;21140;-61
2021/10/22 00:33:14;;;;;;;2.65;0.82;;;;;;;14.86;53.34;98546.28;1825690;75;21108;-61
2021/10/22 00:35:41;;;;;;;7.90;1.57;;;;;;;14.88;53.37;98545.66;1829336;75;21147;-59
2021/10/22 00:38:08;;;;;;;2.42;1.00;;;;;;;14.90;53.29;98541.44;1829762;76;21036;-58
2021/10/22 00:40:35;;;;;;;6.17;0.90;;;;;;;14.91;53.26;98544.02;1828661;75;21104;-59
2021/10/22 00:43:01;;;;;;;6.05;1.05;;;;;;;14.92;53.17;98541.69;1829076;75;21117;-60
2021/10/22 00:45:28;;;;;;;3.90;1.00;;;;;;;14.93;53.17;98539.84;1826986;75;21115;-63
2021/10/22 00:47:54;;;;;;;4.30;1.00;;;;;;;14.95;53.15;98543.28;1825719;75;21121;-59
2021/10/22 00:50:20;;;;;;;2.55;0.90;;;;;;;14.96;53.08;98547.72;1794611;77;21046;-60
2021/10/22 00:52:48;;;;;;;4.72;0.90;;;;;;;14.97;53.12;98541.31;1758322;78;20903;-60
2021/10/22 00:55:14;;;;;;;6.40;0.90;;;;;;;14.98;53.07;98544.36;1790317;77;21060;-60
2021/10/22 00:57:41;;;;;;;4.30;0.90;;;;;;;14.98;53.03;98537.58;1796246;77;20959;-62
2021/10/22 01:00:08;;;;;;;3.35;1.10;;;;;;;14.98;53.05;98541.16;1802249;77;20947;-59
2021/10/22 01:02:36;;;;;;;1.90;0.90;;;;;;;14.99;53.01;98542.88;1797419;77;20904;-60
2021/10/22 01:05:09;;;;;;;5.55;1.00;;;;;;;14.98;52.89;98546.57;1797439;77;20904;-59
2021/10/22 01:07:41;;;;;;;2.85;0.82;;;;;;;15.01;52.88;98557.16;1801774;77;21077;-60
2021/10/22 01:10:11;;;;;;;5.25;0.90;;;;;;;15.01;52.92;98556.30;1776167;78;21489;-61
2021/10/22 01:12:41;;;;;;;2.90;0.90;;;;;;;15.01;52.89;98573.42;1793248;77;21049;-59
2021/10/22 01:15:07;;;;;;;4.62;1.00;;;;;;;15.02;52.87;98567.51;1790212;77;21556;-62
2021/10/22 01:17:43;;;;;;;5.95;0.90;;;;;;;15.02;52.80;98567.02;1800635;77;21377;-59
2021/10/22 01:20:16;;;;;;;3.67;0.85;;;;;;;15.02;52.79;98572.92;1797896;78;21096;-59
2021/10/22 01:22:43;;;;;;;5.10;1.10;;;;;;;15.02;52.77;98571.08;1769468;78;21552;-60
2021/10/22 01:25:12;;;;;;;2.60;0.80;;;;;;;15.01;52.61;98586.11;1801242;78;21088;-60
2021/10/22 01:27:39;;;;;;;1.45;0.93;;;;;;;15.01;52.61;98586.11;1792088;78;20937;-60
2021/10/22 01:30:11;;;;;;;3.17;0.80;;;;;;;15.02;52.71;98590.05;1790853;78;21068;-59
2021/10/22 01:32:37;;;;;;;1.90;0.80;;;;;;;15.03;52.66;98596.33;1776511;78;21520;-62
2021/10/22 01:35:05;;;;;;;1.85;0.90;;;;;;;15.04;52.56;98604.34;1798364;78;21072;-61
2021/10/22 01:37:31;;;;;;;2.10;1.12;;;;;;;15.04;52.56;98604.34;1794867;77;21002;-60
2021/10/22 01:39:58;;;;;;;4.92;0.85;;;;;;;15.03;52.31;98591.77;1792227;77;21056;-62
2021/10/22 01:42:27;;;;;;;2.00;0.93;;;;;;;15.06;52.49;98608.25;1792589;78;21009;-61
2021/10/22 01:44:53;;;;;;;2.55;0.80;;;;;;;15.06;52.60;98602.33;1796979;78;21126;-60
2021/10/22 01:47:20;;;;;;;6.15;0.80;;;;;;;15.05;52.33;98600.64;1794901;77;21111;-63
2021/10/22 01:49:47;;;;;;;4.25;0.90;;;;;;;15.08;52.18;98607.13;1793461;77;21100;-60
2021/10/22 01:52:14;;;;;;;3.98;0.88;;;;;;;15.09;52.16;98615.64;1794241;77;21523;-56
2021/10/22 01:54:40;;;;;;;1.65;0.80;;;;;;;15.08;52.08;98611.20;1797232;77;21738;-58
2021/10/22 01:57:07;;;;;;;1.50;0.70;;;;;;;15.08;52.03;98621.18;1765479;78;21152;-60
2021/10/22 01:59:33;;;;;;;1.40;0.72;;;;;;;15.08;51.97;98634.23;1789258;77;21040;-60
2021/10/22 02:01:59;;;;;;;2.77;0.78;;;;;;;15.08;51.97;98634.23;1798842;77;21086;-59
2021/10/22 02:04:26;;;;;;;0.90;0.72;;;;;;;15.07;51.98;98628.45;1798300;77;21577;-63
2021/10/22 02:06:52;;;;;;;7.10;0.80;;;;;;;15.07;52.00;98633.00;1793596;77;21121;-62
2021/10/22 02:09:19;;;;;;;6.42;0.80;;;;;;;15.05;51.92;98632.30;1765134;78;21044;-64
2021/10/22 02:11:46;;;;;;;2.77;0.80;;;;;;;15.03;51.96;98637.84;1799452;77;21041;-60
2021/10/22 02:14:15;;;;;;;2.50;0.70;;;;;;;15.03;51.96;98635.63;1794096;78;21056;-59
2021/10/22 02:16:42;;;;;;;3.27;0.70;;;;;;;15.03;51.90;98639.69;1796042;77;21061;-60
2021/10/22 02:19:09;;;;;;;3.20;0.78;;;;;;;15.01;51.86;98643.87;1791883;77;21531;-60
2021/10/22 02:21:37;;;;;;;3.52;0.88;;;;;;;14.99;51.91;98649.91;1797609;77;21505;-59
2021/10/22 02:24:05;;;;;;;1.35;0.70;;;;;;;14.99;51.75;98655.33;1792753;77;21042;-60
2021/10/22 02:26:33;;;;;;;2.00;0.70;;;;;;;14.98;51.71;98653.61;1791470;77;21096;-59
2021/10/22 02:28:59;;;;;;;2.08;0.70;;;;;;;14.98;51.67;98651.39;1778460;78;21082;-62
2021/10/22 02:31:25;;;;;;;4.60;0.80;;;;;;;14.97;51.72;98660.01;1794824;78;21133;-61
2021/10/22 02:33:52;;;;;;;4.12;0.88;;;;;;;14.96;51.75;98668.30;1777339;78;21155;-59
2021/10/22 02:36:18;;;;;;;1.50;0.70;;;;;;;14.90;51.76;98675.55;1780035;78;21090;-59
2021/10/22 02:38:45;;;;;;;0.78;0.70;;;;;;;14.90;51.76;98675.55;1793595;78;21076;-60
2021/10/22 02:41:11;;;;;;;1.72;0.60;;;;;;;14.87;51.72;98677.19;1792561;77;21101;-62
2021/10/22 02:43:38;;;;;;;2.20;0.60;;;;;;;14.83;51.69;98671.14;1765998;78;21070;-60
2021/10/22 02:46:04;;;;;;;1.98;0.60;;;;;;;14.80;51.66;98678.16;1769096;78;23317;-61
2021/10/22 02:48:30;;;;;;;3.98;0.60;;;;;;;14.79;51.73;98684.59;1794100;78;21044;-61
2021/10/22 02:50:57;;;;;;;3.15;0.70;;;;;;;14.75;51.57;98677.20;1775049;78;21157;-60
2021/10/22 02:53:24;;;;;;;1.47;0.65;;;;;;;14.72;51.54;98686.05;1789538;77;21359;-62
2021/10/22 02:55:51;;;;;;;4.30;0.70;;;;;;;14.70;51.49;98693.47;1776951;78;21022;-61
2021/10/22 02:58:18;;;;;;;2.55;0.78;;;;;;;14.66;51.50;98694.69;1770669;78;21340;-60
2021/10/22 03:00:44;;;;;;;2.33;0.60;;;;;;;14.64;51.53;98700.72;1768991;78;21517;-59
2021/10/22 03:03:10;;;;;;;3.83;0.55;;;;;;;14.61;51.54;98700.98;1794219;77;22135;-60
2021/10/22 03:05:37;;;;;;;1.87;0.53;;;;;;;14.58;51.54;98701.22;1780255;78;21031;-62
2021/10/22 03:08:04;;;;;;;2.40;0.60;;;;;;;14.56;51.56;98709.47;1769228;78;21027;-60
2021/10/22 03:10:30;;;;;;;1.30;0.60;;;;;;;14.53;51.60;98708.88;1792606;77;21049;-60
2021/10/22 03:12:57;;;;;;;2.85;0.65;;;;;;;14.50;51.62;98713.17;1793923;77;21116;-60
2021/10/22 03:15:23;;;;;;;4.62;0.70;;;;;;;14.46;51.60;98714.42;1795516;77;21094;-61
2021/10/22 03:17:51;;;;;;;5.80;0.70;;;;;;;14.43;51.66;98716.88;1792068;77;21434;-60
2021/10/22 03:20:17;;;;;;;1.82;0.80;;;;;;;14.41;51.61;98711.20;1751057;79;21041;-60
2021/10/22 03:22:44;;;;;;;5.22;0.80;;;;;;;14.36;51.60;98715.13;1774421;78;23308;-61
2021/10/22 03:25:10;;;;;;;1.70;0.70;;;;;;;14.34;51.65;98719.79;1781465;78;21607;-62
2021/10/22 03:27:37;;;;;;;1.98;0.78;;;;;;;14.32;51.67;98722.23;1774396;78;21069;-61
2021/10/22 03:30:05;;;;;;;2.45;0.60;;;;;;;14.30;51.65;98722.35;1776132;79;21128;-62
2021/10/22 03:32:33;;;;;;;1.42;0.60;;;;;;;14.27;51.70;98729.39;1782305;78;20939;-60
2021/10/22 03:35:00;;;;;;;1.17;0.70;;;;;;;14.26;51.80;98730.36;1777151;78;21080;-60
2021/10/22 03:37:27;;;;;;;1.17;0.60;;;;;;;14.24;51.82;98721.50;1779149;78;21589;-61
2021/10/22 03:39:53;;;;;;;2.22;0.70;;;;;;;14.22;51.86;98725.30;1778702;78;21862;-62
2021/10/22 03:42:19;;;;;;;2.17;0.65;;;;;;;14.20;51.89;98727.30;1779065;78;21430;-61
2021/10/22 03:44:46;;;;;;;4.67;0.70;;;;;;;14.17;51.90;98735.15;1777795;78;20895;-60
2021/10/22 03:47:12;;;;;;;1.50;0.80;;;;;;;14.16;52.02;98740.67;1776609;78;21090;-60
2021/10/22 03:49:40;;;;;;;2.05;1.00;;;;;;;14.15;52.00;98737.59;1782138;78;20910;-60
2021/10/22 03:52:07;;;;;;;4.83;1.30;;;;;;;14.13;52.06;98746.32;1776097;78;20978;-60
2021/10/22 03:54:33;;;;;;;3.00;1.27;;;;;;;14.13;52.10;98750.37;1776821;78;21507;-60
2021/10/22 03:56:59;;;;;;;4.42;1.40;;;;;;;14.10;52.17;98747.45;1779949;78;21313;-60
2021/10/22 03:59:25;;;;;;;4.65;1.15;;;;;;;14.10;52.21;98750.64;1777941;78;21082;-60
2021/10/22 04:01:52;;;;;;;4.25;1.70;;;;;;;14.08;52.24;98762.93;1780682;78;20927;-59
2021/10/22 04:04:18;;;;;;;6.00;1.40;;;;;;;14.06;52.24;98757.26;1779666;78;21006;-59
2021/10/22 04:06:46;;;;;;;6.10;1.02;;;;;;;14.03;52.23;98755.16;1781275;78;20878;-60
2021/10/22 04:09:15;;;;;;;3.98;1.10;;;;;;;14.01;52.10;98762.55;1777293;78;20931;-61
2021/10/22 04:11:41;;;;;;;2.62;0.90;;;;;;;14.00;52.10;98768.08;1779708;78;21091;-61
2021/10/22 04:14:07;;;;;;;1.42;0.70;;;;;;;13.98;52.00;98766.84;1780784;78;20919;-60
2021/10/22 04:16:33;;;;;;;4.62;0.80;;;;;;;13.97;51.99;98771.88;1777199;78;20911;-61
2021/10/22 04:19:00;;;;;;;5.55;0.70;;;;;;;13.96;51.97;98766.58;1777805;79;21109;-60
2021/10/22 04:21:27;;;;;;;4.12;0.70;;;;;;;13.95;52.01;98778.41;1775057;78;21595;-60
2021/10/22 04:23:53;;;;;;;1.57;0.57;;;;;;;13.93;52.04;98780.36;1774295;78;21121;-60
2021/10/22 04:26:19;;;;;;;0.95;0.50;;;;;;;13.88;52.12;98784.76;1778950;78;22485;-62
2021/10/22 04:28:46;;;;;;;1.55;0.60;;;;;;;13.87;52.23;98791.14;1770024;78;21038;-60
2021/10/22 04:33:54;;;;;;;4.03;0.57;;;;;;;13.86;52.47;98791.29;1845972;75;23642;-58
2021/10/22 04:36:21;;;;;;;4.20;0.60;;;;;;;13.79;52.61;98786.81;1816829;77;21568;-58
2021/10/22 04:41:32;;;;;;;1.35;0.53;;;;;;;13.71;53.05;98798.70;1809844;77;21123;-58
2021/10/22 04:43:58;;;;;;;4.83;0.80;;;;;;;13.66;53.20;98804.97;1762554;77;21455;-58
2021/10/22 04:46:24;;;;;;;2.75;0.50;;;;;;;13.62;53.25;98811.09;1817327;77;21645;-58
2021/10/22 04:48:51;;;;;;;5.53;0.75;;;;;;;13.58;53.25;98819.07;1809801;77;21087;-59
2021/10/22 04:51:17;;;;;;;1.42;0.50;;;;;;;13.57;53.09;98821.40;1811554;77;21169;-58
2021/10/22 04:53:44;;;;;;;3.62;0.55;;;;;;;13.53;53.06;98828.00;1824272;77;21041;-57
2021/10/22 04:56:10;;;;;;;3.95;0.55;;;;;;;13.50;52.99;98828.25;1809025;77;21073;-57
2021/10/22 04:58:38;;;;;;;4.62;0.60;;;;;;;13.49;52.94;98837.81;1808334;77;21143;-57
2021/10/22 05:01:04;;;;;;;2.30;0.40;;;;;;;13.46;52.90;98847.01;1767365;78;21115;-58
2021/10/22 05:03:31;;;;;;;4.80;0.50;;;;;;;13.45;52.83;98845.28;1765394;78;21189;-58
2021/10/22 05:05:57;;;;;;;1.10;0.40;;;;;;;13.43;52.69;98851.80;1765090;78;21456;-59
2021/10/22 05:08:24;;;;;;;2.95;0.50;;;;;;;13.41;52.60;98845.64;1765924;78;21098;-59
2021/10/22 05:10:51;;;;;;;2.05;0.60;;;;;;;13.41;52.54;98840.23;1769844;78;21064;-58
2021/10/22 05:13:17;;;;;;;4.67;0.60;;;;;;;13.41;52.53;98849.20;1777242;78;21091;-56
2021/10/22 05:15:43;;;;;;;3.52;0.78;;;;;;;13.43;52.49;98858.07;1767992;78;21811;-57
2021/10/22 05:18:10;;;;;;;5.62;2.00;;;;;;;13.45;52.40;98856.58;1766593;78;21337;-59
2021/10/22 05:20:36;;;;;;;11.60;2.10;;;;;;;13.45;52.26;98866.04;1772438;78;21002;-58
2021/10/22 05:23:02;;;;;;;4.80;1.10;;;;;;;13.45;52.23;98857.92;1767050;78;21566;-56
2021/10/22 05:25:29;;;;;;;6.45;1.40;;;;;;;13.45;52.04;98872.80;1767937;78;21648;-59
2021/10/22 05:27:55;;;;;;;6.37;1.10;;;;;;;13.44;52.09;98867.88;1769530;78;21687;-58
2021/10/22 05:30:21;;;;;;;5.75;1.05;;;;;;;13.44;52.04;98874.63;1776461;78;21449;-59
2021/10/22 05:32:48;;;;;;;3.27;1.00;;;;;;;13.44;51.94;98885.97;1765098;78;21120;-57
2021/10/22 05:35:14;;;;;;;1.82;0.70;;;;;;;13.43;51.89;98888.29;1714417;81;21096;-58
2021/10/22 05:37:41;;;;;;;9.30;0.80;;;;;;;13.43;51.89;98891.86;1731243;80;21053;-56
2021/10/22 05:40:08;;;;;;;1.75;0.60;;;;;;;13.45;51.78;98885.83;1735915;80;21112;-56
2021/10/22 05:42:36;;;;;;;3.95;0.82;;;;;;;13.49;51.88;98891.89;1728154;80;22470;-59
2021/10/22 05:45:04;;;;;;;2.45;0.62;;;;;;;13.55;51.95;98891.42;1734879;80;21780;-59
2021/10/22 05:47:31;;;;;;;2.95;0.60;;;;;;;13.59;51.71;98892.94;1738771;80;21460;-58
2021/10/22 05:49:58;;;;;;;0.78;0.42;;;;;;;13.63;51.64;98895.77;1737984;80;20930;-56
2021/10/22 05:52:25;;;;;;;3.05;0.50;;;;;;;13.70;51.66;98908.34;1717316;81;22043;-60
2021/10/22 05:54:51;;;;;;;4.78;0.78;;;;;;;13.73;51.64;98905.42;1717337;81;21077;-55
2021/10/22 05:57:18;;;;;;;4.15;0.57;;;;;;;13.77;51.78;98902.87;1724637;81;21467;-58
2021/10/22 05:59:44;;;;;;;3.75;0.53;;;;;;;13.80;51.56;98899.44;1720890;81;21582;-57
2021/10/22 06:02:10;;;;;;;1.32;0.50;;;;;;;13.84;51.58;98910.42;1719672;81;21892;-58
2021/10/22 06:04:39;;;;;;;2.67;0.40;;;;;;;13.91;51.64;98909.47;1718883;81;22249;-58
2021/10/22 06:07:05;;;;;;;7.30;0.50;;;;;;;13.95;51.52;98906.39;1727427;81;21021;-56
2021/10/22 06:09:32;;;;;;;8.45;0.60;;;;;;;14.02;51.65;98904.12;1718802;82;21127;-59
2021/10/22 06:11:58;;;;;;;3.55;0.60;;;;;;;14.07;51.85;98901.05;1765042;78;20929;-59
2021/10/22 06:14:24;;;;;;;0.80;0.53;;;;;;;14.11;51.98;98904.77;1767752;78;21067;-57
2021/10/22 06:16:51;;;;;;;3.47;0.60;;;;;;;14.16;52.20;98907.98;1765851;78;21155;-58
2021/10/22 06:19:24;;;;;;;2.90;0.68;;;;;;;14.21;52.33;98911.19;1761545;78;21119;-59
2021/10/22 06:24:12;;;;;;;7.05;0.70;;;;;;;14.25;52.13;98914.53;1770281;78;21531;-58
2021/10/22 06:29:38;;;;;;;2.60;0.80;;;;;;;14.27;51.90;98908.03;1787206;78;24400;-59
2021/10/22 06:32:05;;;;;;;3.87;0.57;;;;;;;14.22;51.59;98918.82;1757883;79;21028;-60
2021/10/22 06:34:32;;;;;;;4.62;0.53;;;;;;;14.20;51.24;98918.09;1750720;80;21226;-57
2021/10/22 06:36:59;;;;;;;0.78;0.68;;;;;;;14.17;51.29;98925.09;1748773;80;20918;-59
2021/10/22 06:39:25;;;;;;;3.62;0.60;;;;;;;14.18;51.44;98930.39;1746524;80;21032;-57
2021/10/22 06:41:52;;;;;;;3.92;0.50;;;;;;;14.22;51.46;98935.06;1748082;80;22158;-56
2021/10/22 06:44:23;;;;;;;2.02;0.60;;;;;;;14.25;51.34;98918.59;1747807;80;20902;-59
2021/10/22 06:46:49;;;;;;;3.95;0.50;;;;;;;14.29;51.31;98924.17;1747697;80;22535;-57
2021/10/22 06:49:15;;;;;;;2.37;0.50;;;;;;;14.35;51.34;98931.81;1748707;80;20910;-58
2021/10/22 06:51:42;;;;;;;4.22;0.60;;;;;;;14.42;51.32;98932.23;1748925;80;21411;-58
2021/10/22 06:54:08;;;;;;;0.70;0.42;;;;;;;14.46;51.18;98930.50;1750791;80;20912;-59
2021/10/22 06:56:34;;;;;;;3.25;0.50;;;;;;;14.52;50.98;98926.48;1750634;80;20906;-59
2021/10/22 06:59:01;;;;;;;4.37;0.68;;;;;;;14.58;51.00;98927.35;1749829;80;21060;-57
2021/10/22 07:01:28;;;;;;;6.62;0.50;;;;;;;14.64;51.12;98924.16;1745811;80;20974;-58
2021/10/22 07:03:54;;;;;;;2.77;0.65;;;;;;;14.72;51.24;98929.84;1748441;80;20928;-57
2021/10/22 07:09:05;;;;;;;1.40;0.70;;;;;;;14.84;51.13;98927.53;1750808;80;21381;-58
2021/10/22 07:11:31;;;;;;;3.15;0.60;;;;;;;14.93;51.25;98924.59;1752416;80;21119;-59
2021/10/22 07:13:59;;;;;;;1.75;0.60;;;;;;;14.97;50.71;98924.22;1745928;80;20933;-58
2021/10/22 07:16:27;;;;;;;3.37;0.70;;;;;;;15.02;50.44;98926.58;1749885;80;21231;-56
2021/10/22 07:18:54;;;;;;;2.45;0.70;;;;;;;15.08;50.29;98928.30;1688330;83;20957;-57
2021/10/22 07:21:20;;;;;;;0.80;0.62;;;;;;;15.13;50.37;98938.30;1687708;83;21554;-56
2021/10/22 07:23:48;;;;;;;6.92;0.60;;;;;;;15.18;49.45;98931.14;1710109;81;22680;-60
2021/10/22 07:26:17;;;;;;;1.27;0.50;;;;;;;15.24;48.94;98933.84;1684258;83;20978;-57
2021/10/22 07:28:43;;;;;;;5.28;0.55;;;;;;;15.28;48.36;98936.20;1669523;83;21105;-59
2021/10/22 07:31:10;;;;;;;1.00;0.50;;;;;;;15.35;48.24;98944.70;1667425;84;21595;-59
2021/10/22 07:33:41;;;;;;;3.10;0.60;;;;;;;15.42;47.37;98952.71;1703018;82;21041;-59
2021/10/22 07:36:15;;;;;;;4.90;0.60;;;;;;;15.42;46.99;98948.64;1702293;82;21300;-58
2021/10/22 07:38:41;;;;;;;0.62;0.40;;;;;;;15.43;46.85;98935.45;1704950;82;20920;-56
2021/10/22 07:41:07;;;;;;;2.25;0.60;;;;;;;15.45;46.29;98950.63;1705438;82;20977;-58
2021/10/22 07:43:34;;;;;;;2.22;0.50;;;;;;;15.48;46.18;98957.66;1700669;82;20935;-59
2021/10/22 07:46:00;;;;;;;1.90;0.50;;;;;;;15.53;46.12;98936.44;1671888;84;21119;-58
2021/10/22 07:48:26;;;;;;;4.97;0.50;;;;;;;15.56;45.83;98952.51;1701255;82;21096;-57
2021/10/22 07:50:53;;;;;;;0.88;0.40;;;;;;;15.61;45.50;98948.05;1704791;82;21116;-58
2021/10/22 07:53:20;;;;;;;2.08;0.40;;;;;;;15.64;44.54;98958.66;1667836;84;22101;-56
2021/10/22 07:55:46;;;;;;;0.75;0.30;;;;;;;15.62;43.56;98971.48;1666166;84;21249;-58
2021/10/22 07:58:13;;;;;;;1.95;0.40;;;;;;;15.62;42.92;98952.00;1706304;82;21535;-59
2021/10/22 08:00:39;;;;;;;5.75;0.40;;;;;;;15.62;42.10;98970.98;1663019;84;21118;-58
2021/10/22 08:03:05;;;;;;;6.75;0.40;;;;;;;15.63;41.21;98956.94;1699059;82;21117;-59
2021/10/22 08:05:32;;;;;;;3.02;0.33;;;;;;;15.61;41.35;98964.33;1668072;84;21108;-57
2021/10/22 08:07:58;;;;;;;0.75;0.30;;;;;;;15.60;41.23;98972.95;1659771;84;21467;-58
2021/10/22 08:10:24;;;;;;;6.40;0.40;;;;;;;15.58;40.84;98969.98;1704086;82;21623;-59
2021/10/22 08:12:52;;;;;;;1.87;0.30;;;;;;;15.57;40.81;98973.72;1707851;82;23339;-60
2021/10/22 08:15:18;;;;;;;1.65;0.37;;;;;;;15.54;40.96;98974.82;1708945;82;21010;-58
2021/10/22 08:17:45;;;;;;;2.25;0.30;;;;;;;15.55;40.98;98987.40;1702299;82;21279;-60
2021/10/22 08:20:17;;;;;;;1.90;0.40;;;;;;;15.55;40.70;98982.47;1705506;82;21101;-57
2021/10/22 08:22:40;;;;;;;0.90;0.30;;;;;;;15.53;40.74;98975.77;1668087;84;21093;-58
2021/10/22 08:25:10;;;;;;;0.95;0.20;;;;;;;15.52;40.56;98972.69;1699225;82;21435;-59
2021/10/22 08:27:44;;;;;;;3.72;0.20;;;;;;;15.53;40.60;98983.91;1703702;82;22125;-60
2021/10/22 08:30:15;;;;;;;0.85;0.20;;;;;;;15.57;40.45;98982.69;1733879;80;21058;-58
2021/10/22 08:32:43;;;;;;;4.10;0.30;;;;;;;15.59;40.06;98982.08;1736411;80;21065;-58
2021/10/22 08:35:09;;;;;;;2.47;0.30;;;;;;;15.59;40.21;98978.50;1737045;80;21658;-60
2021/10/22 08:37:37;;;;;;;1.72;0.20;;;;;;;15.62;40.26;98979.13;1733134;80;21066;-57
2021/10/22 08:40:06;;;;;;;6.55;0.30;;;;;;;15.65;40.21;98980.22;1733836;80;21046;-58
2021/10/22 08:42:32;;;;;;;1.57;0.40;;;;;;;15.70;39.81;98980.73;1734060;80;21026;-58
2021/10/22 08:44:58;;;;;;;3.27;0.20;;;;;;;15.75;39.95;98985.77;1737238;80;21564;-57
2021/10/22 08:47:29;;;;;;;2.42;0.40;;;;;;;15.80;39.82;98980.84;1731423;80;21068;-58
2021/10/22 08:50:06;;;;;;;4.17;0.72;;;;;;;15.84;39.33;99004.88;1733712;80;22109;-57
2021/10/22 08:52:32;;;;;;;2.83;0.40;;;;;;;15.82;39.57;99001.41;1734000;80;21044;-58
2021/10/22 08:54:59;;;;;;;3.20;0.30;;;;;;;15.80;39.82;98998.48;1730666;80;21055;-56
2021/10/22 08:57:26;;;;;;;1.45;0.40;;;;;;;15.80;39.90;98997.13;1734198;80;21405;-59
2021/10/22 08:59:56;;;;;;;2.95;0.30;;;;;;;15.83;40.02;98993.65;1730707;80;21519;-57
2021/10/22 09:02:22;;;;;;;4.37;0.23;;;;;;;15.85;39.46;98991.67;1733109;80;21194;-57
2021/10/22 09:04:49;;;;;;;3.45;0.30;;;;;;;15.83;39.61;98990.94;1731880;80;20963;-59
2021/10/22 09:07:19;;;;;;;1.50;0.30;;;;;;;15.83;39.97;98995.49;1733461;80;20997;-58
2021/10/22 09:09:46;;;;;;;1.75;0.30;;;;;;;15.84;39.84;98998.58;1734052;80;20950;-58
2021/10/22 09:12:12;;;;;;;2.35;0.30;;;;;;;15.86;39.97;99002.04;1738509;80;20970;-58
2021/10/22 09:14:58;;;;;;;4.97;0.37;;;;;;;15.91;40.03;98994.90;1739577;80;21345;-58
2021/10/22 09:17:35;;;;;;;0.70;0.23;;;;;;;15.96;39.83;98996.23;1734859;80;21064;-58
2021/10/22 09:20:05;;;;;;;3.45;0.40;;;;;;;16.03;39.86;98992.02;1732585;80;21132;-58
2021/10/22 09:22:33;;;;;;;4.87;0.30;;;;;;;16.12;39.95;99003.97;1684331;83;20923;-58
2021/10/22 09:25:04;;;;;;;1.92;0.30;;;;;;;16.16;39.16;99002.74;1701165;82;20943;-58
2021/10/22 09:27:48;;;;;;;2.40;0.30;;;;;;;16.17;38.89;98997.66;1734772;80;21520;-57
2021/10/22 09:30:31;;;;;;;5.85;0.30;;;;;;;16.18;38.83;98996.17;1736433;80;21053;-58
2021/10/22 09:33:05;;;;;;;1.22;0.23;;;;;;;16.20;38.75;99002.34;1741192;80;21452;-58
2021/10/22 09:35:38;;;;;;;;;;;;;;;16.20;38.63;99005.55;1738984;80;21128;-58
2021/10/22 09:38:17;;;;;;;2.58;0.30;;;;;;;16.16;38.77;99006.81;1743717;80;20102;-55
2021/10/22 09:40:50;;;;;;;0.62;0.20;;;;;;;16.16;38.96;99002.74;1741303;80;21115;-59
2021/10/22 09:43:28;;;;;;;3.07;0.50;;;;;;;16.19;38.91;98991.61;1738263;80;20978;-58
2021/10/22 09:46:19;;;;;;;3.55;0.33;;;;;;;16.21;38.74;98999.14;1745117;80;20988;-57
2021/10/22 09:48:49;;;;;;;1.75;0.30;;;;;;;16.22;38.62;98992.23;1733948;80;21045;-58
2021/10/22 09:51:26;;;;;;;2.75;0.30;;;;;;;16.23;38.44;98995.81;1738338;80;21084;-60
2021/10/22 09:53:55;;;;;;;5.50;0.30;;;;;;;16.23;38.19;99000.75;1742897;80;21089;-55
2021/10/22 09:56:24;;;;;;;3.22;0.25;;;;;;;16.20;37.99;99006.42;1740285;80;22487;-56
2021/10/22 09:59:07;;;;;;;2.35;0.20;;;;;;;16.18;38.18;99008.88;1742671;80;21460;-58
2021/10/22 10:01:37;;;;;;;2.60;0.30;;;;;;;16.17;38.33;99005.80;1741052;80;20957;-56
2021/10/22 10:04:08;;;;;;;4.40;0.30;;;;;;;16.22;38.34;99009.02;1743213;80;22017;-58
2021/10/22 10:06:36;;;;;;;4.85;0.23;;;;;;;16.22;38.18;99007.66;1743552;80;22125;-56
2021/10/22 10:09:04;;;;;;;3.33;0.30;;;;;;;16.23;37.94;99015.68;1745164;80;21293;-58
2021/10/22 10:11:31;;;;;;;0.80;0.20;;;;;;;16.23;38.06;99007.53;1744707;80;20969;-58
2021/10/22 10:13:58;;;;;;;2.58;0.30;;;;;;;16.24;38.14;99005.69;1741560;80;21739;-58
2021/10/22 10:16:25;;;;;;;2.35;0.20;;;;;;;16.26;38.05;99005.03;1741356;80;20931;-55
2021/10/22 10:19:11;;;;;;;0.65;0.30;;;;;;;16.27;37.97;99001.34;1743569;80;22345;-58
2021/10/22 10:21:50;;;;;;;4.65;0.30;;;;;;;16.30;38.16;99003.80;1741388;80;20926;-59
2021/10/22 10:24:19;;;;;;;1.87;0.37;;;;;;;16.36;38.17;99006.00;1708961;82;20977;-60
2021/10/22 10:27:08;;;;;;;1.70;0.40;;;;;;;16.39;37.81;99005.75;1746454;80;20957;-56
2021/10/22 10:29:44;;;;;;;2.55;0.30;;;;;;;16.38;37.64;99011.31;1739291;80;21527;-58
2021/10/22 10:32:16;;;;;;;2.02;0.40;;;;;;;16.34;37.71;99020.20;1738636;80;21430;-59
2021/10/22 10:34:48;;;;;;;1.72;0.20;;;;;;;16.33;37.47;99011.70;1740747;80;20989;-59
2021/10/22 10:37:25;;;;;;;2.90;0.40;;;;;;;16.36;37.51;99007.85;1743119;80;21330;-58
2021/10/22 10:39:55;;;;;;;1.77;0.30;;;;;;;16.36;37.46;99026.37;1741518;80;20879;-58
2021/10/22 10:42:28;;;;;;;2.25;0.40;;;;;;;16.37;37.29;99014.52;1739042;80;21034;-58
2021/10/22 10:44:57;;;;;;;3.15;0.30;;;;;;;16.36;37.38;99026.86;1740450;80;21645;-58
2021/10/22 10:47:36;;;;;;;6.62;0.50;;;;;;;16.36;37.19;99025.50;1741552;80;21467;-58
2021/10/22 10:50:04;;;;;;;3.83;0.37;;;;;;;16.32;37.42;99026.27;1740160;80;21083;-58
2021/10/22 10:52:44;;;;;;;3.75;0.33;;;;;;;16.33;37.25;99023.06;1742618;80;21572;-58
2021/10/22 10:55:18;;;;;;;11.33;0.30;;;;;;;16.33;37.49;99021.70;1741231;80;21068;-56
2021/10/22 10:57:51;;;;;;;1.98;0.23;;;;;;;16.31;37.56;99010.97;1741724;80;22217;-58
2021/10/22 11:00:21;;;;;;;3.47;0.40;;;;;;;16.31;37.37;99013.69;1711428;80;21261;-59
2021/10/22 11:03:07;;;;;;;3.12;0.30;;;;;;;16.25;37.55;99018.24;1710264;82;21081;-57
2021/10/22 11:05:49;;;;;;;6.12;0.23;;;;;;;16.22;37.16;99022.59;1736790;80;21104;-58
2021/10/22 11:08:18;;;;;;;3.27;0.30;;;;;;;16.16;37.16;99024.47;1742210;80;20989;-58
2021/10/22 11:11:10;;;;;;;3.25;0.30;;;;;;;16.14;37.35;99016.94;1739254;80;21575;-59
2021/10/22 11:14:00;;;;;;;2.20;0.20;;;;;;;16.15;37.58;99022.73;1712606;80;21050;-57
2021/10/22 11:16:41;;;;;;;1.22;0.30;;;;;;;16.17;37.36;99016.16;1737863;80;21135;-58
2021/10/22 11:19:24;;;;;;;9.75;0.40;;;;;;;16.22;37.38;99018.52;1740906;80;21075;-58
2021/10/22 11:22:01;;;;;;;5.10;0.37;;;;;;;16.26;37.30;99023.55;1742556;80;21054;-58
2021/10/22 11:24:31;;;;;;;1.17;0.40;;;;;;;16.27;36.79;99020.34;1741122;80;22418;-59
2021/10/22 11:27:08;;;;;;;3.20;0.28;;;;;;;16.25;36.92;99028.61;1740416;80;21184;-59
2021/10/22 11:29:39;;;;;;;2.20;0.20;;;;;;;16.24;36.95;99017.91;1735138;80;21084;-56
2021/10/22 11:32:14;;;;;;;3.58;0.30;;;;;;;16.22;36.98;99022.59;1741612;80;21455;-58
2021/10/22 11:34:46;;;;;;;1.10;0.20;;;;;;;16.21;36.88;99031.23;1740896;80;21366;-59
2021/10/22 11:37:16;;;;;;;7.78;0.42;;;;;;;16.18;36.84;99021.97;1740779;80;21387;-58
2021/10/22 11:39:51;;;;;;;3.98;0.37;;;;;;;16.17;37.23;99024.80;1738178;80;21049;-57
2021/10/22 11:42:30;;;;;;;5.08;0.20;;;;;;;16.15;37.17;99033.59;1738765;80;26546;-58
2021/10/22 11:45:05;;;;;;;2.65;0.23;;;;;;;16.13;37.24;99039.14;1739448;80;20990;-60
2021/10/22 11:47:44;;;;;;;1.35;0.30;;;;;;;16.11;37.24;99028.90;1739215;80;21495;-57
2021/10/22 11:50:24;;;;;;;0.40;0.20;;;;;;;16.08;37.17;99038.64;1743310;80;21595;-59
2021/10/22 11:53:14;;;;;;;0.70;0.20;;;;;;;16.04;37.25;99038.54;1704482;82;21078;-58
2021/10/22 11:56:02;;;;;;;0.88;0.30;;;;;;;16.04;37.46;99039.03;1741342;80;21136;-59